Time;durP1;ratioP1;P1;durP2;ratioP2;P2;SDS_P1;SDS_P2;PMS_P1;PMS_P2;Temp;Humidity;BMP_temperature;BMP_pressure;BME280_temperature;BME280_humidity;BME280_pressure;Samples;Min_cycle;Max_cycle;Signal;HPM_P1;HPM_P2
2023/12/30 00:01:15;;;;;;;4.25;2.00;;;;;;;;;;4948684;28;20042;-88
2023/12/30 00:03:41;;;;;;;3.58;1.80;;;;;;;;;;4946538;29;20024;-86
2023/12/30 00:06:07;;;;;;;5.18;1.80;;;;;;;;;;4950133;29;20031;-87
2023/12/30 00:08:33;;;;;;;4.68;1.70;;;;;;;;;;4948477;29;20122;-87
2023/12/30 00:10:58;;;;;;;3.20;1.90;;;;;;;;;;4930300;29;20593;-87
2023/12/30 00:13:24;;;;;;;3.38;1.85;;;;;;;;;;4933240;29;20043;-87
2023/12/30 00:15:49;;;;;;;4.47;1.92;;;;;;;;;;4936609;29;20042;-88
2023/12/30 00:18:15;;;;;;;2.95;1.70;;;;;;;;;;4951024;29;20031;-87
2023/12/30 00:20:40;;;;;;;2.42;1.50;;;;;;;;;;4951295;29;20122;-88
2023/12/30 00:23:06;;;;;;;3.42;1.65;;;;;;;;;;4945512;29;20023;-86
2023/12/30 00:25:32;;;;;;;2.83;1.80;;;;;;;;;;4944783;29;20035;-87
2023/12/30 00:27:58;;;;;;;3.45;1.58;;;;;;;;;;4948921;29;20028;-86
2023/12/30 00:30:24;;;;;;;3.42;1.60;;;;;;;;;;4943495;29;20462;-87
2023/12/30 00:32:49;;;;;;;2.92;1.60;;;;;;;;;;4942437;28;20223;-87
2023/12/30 00:35:15;;;;;;;3.88;1.70;;;;;;;;;;4937034;29;20093;-88
2023/12/30 00:37:40;;;;;;;2.95;1.70;;;;;;;;;;4950559;29;20039;-88
2023/12/30 00:40:06;;;;;;;3.72;1.60;;;;;;;;;;4941515;28;20031;-87
2023/12/30 00:42:32;;;;;;;3.05;1.50;;;;;;;;;;4966959;28;20412;-88
2023/12/30 00:44:57;;;;;;;4.00;1.63;;;;;;;;;;4936417;29;20032;-87
2023/12/30 00:47:23;;;;;;;2.47;1.60;;;;;;;;;;4935337;28;20020;-86
2023/12/30 00:49:48;;;;;;;4.28;1.77;;;;;;;;;;4963743;28;20131;-85
2023/12/30 00:52:14;;;;;;;4.20;1.73;;;;;;;;;;4947568;29;20034;-87
2023/12/30 00:54:39;;;;;;;3.70;1.50;;;;;;;;;;4956263;29;20042;-86
2023/12/30 00:57:05;;;;;;;2.80;1.60;;;;;;;;;;4948807;29;20063;-87
2023/12/30 00:59:31;;;;;;;2.63;1.55;;;;;;;;;;4952673;28;20044;-87
2023/12/30 01:01:56;;;;;;;3.03;1.60;;;;;;;;;;4955843;29;20114;-87
2023/12/30 01:04:22;;;;;;;2.17;1.50;;;;;;;;;;4953071;29;20027;-87
2023/12/30 01:06:47;;;;;;;2.60;1.48;;;;;;;;;;4950028;29;20020;-85
2023/12/30 01:09:13;;;;;;;3.72;1.60;;;;;;;;;;4957210;29;20043;-85
2023/12/30 01:11:38;;;;;;;3.65;1.50;;;;;;;;;;4947871;29;20099;-86
2023/12/30 01:14:04;;;;;;;3.28;1.50;;;;;;;;;;4941502;29;20059;-87
2023/12/30 01:16:30;;;;;;;2.85;1.58;;;;;;;;;;4944791;29;20405;-86
2023/12/30 01:18:56;;;;;;;2.00;1.20;;;;;;;;;;4947159;29;20087;-87
2023/12/30 01:21:21;;;;;;;3.13;1.40;;;;;;;;;;4951995;29;20070;-87
2023/12/30 01:23:47;;;;;;;2.60;1.70;;;;;;;;;;4954524;29;20024;-89
2023/12/30 01:26:12;;;;;;;2.97;1.80;;;;;;;;;;4952155;28;20170;-88
2023/12/30 01:28:38;;;;;;;2.92;1.65;;;;;;;;;;4957493;29;20031;-87
2023/12/30 01:31:03;;;;;;;3.88;1.88;;;;;;;;;;4952434;28;20031;-86
2023/12/30 01:33:29;;;;;;;3.85;1.70;;;;;;;;;;4952071;29;20039;-85
2023/12/30 01:35:55;;;;;;;2.75;1.52;;;;;;;;;;4954640;29;20035;-87
2023/12/30 01:38:20;;;;;;;2.75;1.65;;;;;;;;;;4948788;29;20053;-85
2023/12/30 01:40:46;;;;;;;2.80;1.60;;;;;;;;;;4945891;28;20027;-88
2023/12/30 01:43:29;;;;;;;2.88;1.60;;;;;;;;;;4950957;29;20502;-87
2023/12/30 01:45:59;;;;;;;3.10;1.58;;;;;;;;;;4956959;29;20521;-86
2023/12/30 01:48:27;;;;;;;3.28;1.77;;;;;;;;;;4949636;28;20035;-88
2023/12/30 01:50:57;;;;;;;3.45;1.63;;;;;;;;;;4935481;29;20039;-86
2023/12/30 01:53:24;;;;;;;2.97;1.63;;;;;;;;;;4945232;29;20066;-88
2023/12/30 01:55:50;;;;;;;2.72;1.55;;;;;;;;;;4946049;29;20496;-88
2023/12/30 01:58:17;;;;;;;2.58;1.60;;;;;;;;;;4941094;29;20122;-87
2023/12/30 02:00:46;;;;;;;2.45;1.50;;;;;;;;;;4938550;29;20045;-88
2023/12/30 02:03:12;;;;;;;2.67;1.70;;;;;;;;;;4953370;29;20110;-86
2023/12/30 02:05:38;;;;;;;3.75;1.80;;;;;;;;;;4935130;29;20540;-86
2023/12/30 02:08:04;;;;;;;3.38;1.92;;;;;;;;;;4950274;28;20046;-86
2023/12/30 02:10:29;;;;;;;2.38;1.60;;;;;;;;;;4951557;28;20133;-87
2023/12/30 02:12:55;;;;;;;2.95;1.60;;;;;;;;;;4951700;28;20045;-87
2023/12/30 02:15:21;;;;;;;3.08;1.88;;;;;;;;;;4957265;29;20027;-87
2023/12/30 02:17:51;;;;;;;2.80;1.77;;;;;;;;;;4944652;28;20046;-86
2023/12/30 02:20:18;;;;;;;4.55;1.88;;;;;;;;;;4945270;29;20638;-88
2023/12/30 02:22:47;;;;;;;3.58;1.90;;;;;;;;;;4940694;29;20035;-86
2023/12/30 02:25:14;;;;;;;3.10;1.70;;;;;;;;;;4933833;29;20486;-87
2023/12/30 02:27:41;;;;;;;2.50;1.75;;;;;;;;;;4951689;29;20095;-87
2023/12/30 02:30:07;;;;;;;2.60;1.67;;;;;;;;;;4952155;29;20034;-86
2023/12/30 02:32:33;;;;;;;3.50;1.77;;;;;;;;;;4951371;29;20036;-87
2023/12/30 02:34:58;;;;;;;2.80;1.50;;;;;;;;;;4945380;28;20573;-87
2023/12/30 02:37:24;;;;;;;3.45;1.80;;;;;;;;;;4944074;29;20032;-87
2023/12/30 02:39:49;;;;;;;2.35;1.55;;;;;;;;;;4953434;29;20039;-88
2023/12/30 02:42:15;;;;;;;3.88;1.70;;;;;;;;;;4947842;28;20038;-89
2023/12/30 02:44:40;;;;;;;4.18;1.80;;;;;;;;;;4951694;29;20023;-87
2023/12/30 02:47:06;;;;;;;3.08;1.60;;;;;;;;;;4952866;29;20046;-87
2023/12/30 02:49:33;;;;;;;3.20;1.65;;;;;;;;;;4950964;29;20114;-89
2023/12/30 02:51:59;;;;;;;2.13;1.42;;;;;;;;;;4934015;29;20398;-87
2023/12/30 02:54:24;;;;;;;2.55;1.60;;;;;;;;;;4952335;28;20126;-87
2023/12/30 02:56:49;;;;;;;3.08;1.60;;;;;;;;;;4954799;29;20426;-87
2023/12/30 02:59:15;;;;;;;2.17;1.38;;;;;;;;;;4955075;29;20035;-86
2023/12/30 03:01:40;;;;;;;3.42;1.55;;;;;;;;;;4938515;29;20038;-87
2023/12/30 03:04:06;;;;;;;2.00;1.48;;;;;;;;;;4949239;29;20035;-87
2023/12/30 03:06:32;;;;;;;2.95;1.60;;;;;;;;;;4951484;29;20039;-87
2023/12/30 03:08:57;;;;;;;2.60;1.50;;;;;;;;;;4931911;29;20098;-87
2023/12/30 03:11:23;;;;;;;2.88;1.60;;;;;;;;;;4927140;29;20035;-87
2023/12/30 03:13:49;;;;;;;2.03;1.30;;;;;;;;;;4943921;29;20039;-86
2023/12/30 03:16:15;;;;;;;2.42;1.45;;;;;;;;;;4943839;28;20040;-87
2023/12/30 03:18:45;;;;;;;2.67;1.42;;;;;;;;;;4947177;29;20040;-87
2023/12/30 03:21:14;;;;;;;2.30;1.50;;;;;;;;;;4951040;29;20098;-87
2023/12/30 03:23:40;;;;;;;1.80;1.17;;;;;;;;;;4941873;29;20026;-86
2023/12/30 03:26:07;;;;;;;2.15;1.30;;;;;;;;;;4941032;29;20032;-86
2023/12/30 03:28:34;;;;;;;2.40;1.38;;;;;;;;;;4956193;28;20038;-86
2023/12/30 03:30:59;;;;;;;2.33;1.42;;;;;;;;;;4958375;29;20478;-86
2023/12/30 03:33:25;;;;;;;2.30;1.50;;;;;;;;;;4950863;29;20027;-86
2023/12/30 03:35:52;;;;;;;2.63;1.58;;;;;;;;;;4929997;29;20035;-86
2023/12/30 03:38:17;;;;;;;3.80;1.58;;;;;;;;;;4953070;29;20182;-89
2023/12/30 03:40:43;;;;;;;2.45;1.45;;;;;;;;;;4952632;29;20027;-89
2023/12/30 03:43:08;;;;;;;3.33;1.30;;;;;;;;;;4945832;29;20031;-87
2023/12/30 03:45:34;;;;;;;2.10;1.30;;;;;;;;;;4945481;29;20023;-86
2023/12/30 03:48:00;;;;;;;1.88;1.15;;;;;;;;;;4952923;28;20115;-87
2023/12/30 03:50:25;;;;;;;2.80;1.40;;;;;;;;;;4933448;29;20026;-85
2023/12/30 03:52:51;;;;;;;2.65;1.50;;;;;;;;;;4956114;29;20126;-87
2023/12/30 03:55:17;;;;;;;2.80;1.60;;;;;;;;;;4940167;29;20023;-86
2023/12/30 03:57:43;;;;;;;2.88;1.50;;;;;;;;;;4952105;29;20058;-86
2023/12/30 04:00:09;;;;;;;2.70;1.50;;;;;;;;;;4944856;29;20397;-87
2023/12/30 04:02:40;;;;;;;3.15;1.67;;;;;;;;;;4948250;29;20027;-87
2023/12/30 04:05:06;;;;;;;2.50;1.50;;;;;;;;;;4952783;29;20033;-86
2023/12/30 04:07:32;;;;;;;6.55;1.60;;;;;;;;;;4952047;28;20027;-88
2023/12/30 04:09:58;;;;;;;2.55;1.67;;;;;;;;;;4935144;29;20027;-88
2023/12/30 04:12:24;;;;;;;4.85;1.80;;;;;;;;;;4944388;29;20046;-87
2023/12/30 04:14:50;;;;;;;3.08;1.75;;;;;;;;;;4950175;29;20102;-87
2023/12/30 04:17:16;;;;;;;3.33;1.77;;;;;;;;;;4937720;29;20444;-89
2023/12/30 04:19:41;;;;;;;3.08;1.70;;;;;;;;;;4943918;29;20070;-86
2023/12/30 04:22:07;;;;;;;3.83;1.80;;;;;;;;;;4949220;29;20031;-87
2023/12/30 04:24:33;;;;;;;4.38;1.80;;;;;;;;;;4941315;29;20028;-87
2023/12/30 04:26:58;;;;;;;3.28;1.70;;;;;;;;;;4949317;29;20027;-88
2023/12/30 04:29:26;;;;;;;3.53;1.80;;;;;;;;;;4927987;29;20040;-87
2023/12/30 04:31:51;;;;;;;2.50;1.60;;;;;;;;;;4950045;29;20086;-86
2023/12/30 04:34:17;;;;;;;3.28;1.60;;;;;;;;;;4942222;29;20031;-87
2023/12/30 04:36:43;;;;;;;3.03;1.63;;;;;;;;;;4934438;29;20374;-87
2023/12/30 04:39:08;;;;;;;3.08;1.42;;;;;;;;;;4946081;29;20035;-88
2023/12/30 04:41:35;;;;;;;3.75;1.77;;;;;;;;;;4944660;28;20107;-87
2023/12/30 04:44:01;;;;;;;2.38;1.60;;;;;;;;;;4939752;29;20372;-87
2023/12/30 04:46:27;;;;;;;3.28;1.60;;;;;;;;;;4942075;29;20104;-87
2023/12/30 04:48:54;;;;;;;3.10;1.45;;;;;;;;;;4930251;29;20051;-86
2023/12/30 04:51:21;;;;;;;2.95;1.50;;;;;;;;;;4941108;28;20099;-86
2023/12/30 04:53:46;;;;;;;2.47;1.45;;;;;;;;;;4945082;29;20036;-85
2023/12/30 04:56:16;;;;;;;3.92;1.50;;;;;;;;;;4954844;29;20084;-86
2023/12/30 04:58:42;;;;;;;2.50;1.55;;;;;;;;;;4950955;28;20024;-87
2023/12/30 05:01:08;;;;;;;2.70;1.58;;;;;;;;;;4936249;29;20375;-87
2023/12/30 05:03:35;;;;;;;3.92;1.77;;;;;;;;;;4932696;29;20019;-89
2023/12/30 05:06:00;;;;;;;2.70;1.65;;;;;;;;;;4940166;29;20047;-89
2023/12/30 05:08:26;;;;;;;2.70;1.70;;;;;;;;;;4945319;29;20032;-87
2023/12/30 05:10:51;;;;;;;2.80;1.63;;;;;;;;;;4949871;29;20030;-87
2023/12/30 05:13:17;;;;;;;1.83;1.30;;;;;;;;;;4949485;29;20488;-85
2023/12/30 05:15:42;;;;;;;3.90;1.38;;;;;;;;;;4955143;29;20097;-86
2023/12/30 05:18:08;;;;;;;2.92;1.40;;;;;;;;;;4950179;28;20123;-87
2023/12/30 05:20:33;;;;;;;2.88;1.48;;;;;;;;;;4947013;28;20058;-86
2023/12/30 05:23:00;;;;;;;2.85;1.55;;;;;;;;;;4947359;29;20020;-86
2023/12/30 05:25:25;;;;;;;2.72;1.30;;;;;;;;;;4956918;28;20040;-87
2023/12/30 05:27:51;;;;;;;1.88;1.20;;;;;;;;;;4952289;28;20051;-87
2023/12/30 05:30:16;;;;;;;2.67;1.30;;;;;;;;;;4949836;28;20090;-87
2023/12/30 05:32:42;;;;;;;2.47;1.50;;;;;;;;;;4939865;29;20039;-86
2023/12/30 05:35:07;;;;;;;3.65;1.45;;;;;;;;;;4955105;29;20119;-87
2023/12/30 05:37:33;;;;;;;1.63;1.20;;;;;;;;;;4956959;28;20046;-86
2023/12/30 05:39:59;;;;;;;2.45;1.30;;;;;;;;;;4957004;28;20594;-85
2023/12/30 05:42:24;;;;;;;7.05;2.80;;;;;;;;;;4933470;29;20027;-87
2023/12/30 05:44:50;;;;;;;1.67;1.30;;;;;;;;;;4951963;29;20038;-87
2023/12/30 05:47:15;;;;;;;2.33;1.40;;;;;;;;;;4940163;29;20102;-86
2023/12/30 05:49:41;;;;;;;2.55;1.50;;;;;;;;;;4945591;29;20035;-87
2023/12/30 05:52:07;;;;;;;2.65;1.70;;;;;;;;;;4950821;29;20125;-86
2023/12/30 05:54:34;;;;;;;2.15;1.35;;;;;;;;;;4951975;28;20032;-87
2023/12/30 05:57:00;;;;;;;2.17;1.52;;;;;;;;;;4954446;29;20023;-87
2023/12/30 05:59:26;;;;;;;3.03;1.70;;;;;;;;;;4952444;29;20038;-86
2023/12/30 06:01:52;;;;;;;3.33;1.38;;;;;;;;;;4949281;28;20039;-86
2023/12/30 06:04:18;;;;;;;5.10;1.83;;;;;;;;;;4937697;29;20085;-86
2023/12/30 06:06:44;;;;;;;2.65;1.73;;;;;;;;;;4940522;29;20035;-85
2023/12/30 06:09:09;;;;;;;2.72;1.70;;;;;;;;;;4952327;29;20035;-87
2023/12/30 06:11:35;;;;;;;4.35;1.70;;;;;;;;;;4964705;28;20043;-87
2023/12/30 06:14:00;;;;;;;3.70;1.90;;;;;;;;;;4947970;28;20038;-86
2023/12/30 06:16:26;;;;;;;4.30;2.30;;;;;;;;;;4944839;29;20028;-86
2023/12/30 06:18:53;;;;;;;2.83;2.00;;;;;;;;;;4943633;29;20118;-87
2023/12/30 06:21:18;;;;;;;2.40;1.65;;;;;;;;;;4953554;29;20641;-87
2023/12/30 06:23:43;;;;;;;2.75;1.80;;;;;;;;;;4947228;28;20035;-87
2023/12/30 06:26:09;;;;;;;4.35;1.77;;;;;;;;;;4940998;29;20032;-86
2023/12/30 06:28:34;;;;;;;3.58;1.75;;;;;;;;;;4942580;29;20139;-87
2023/12/30 06:31:00;;;;;;;3.25;1.80;;;;;;;;;;4945852;29;20100;-86
2023/12/30 06:33:25;;;;;;;2.20;1.60;;;;;;;;;;4948423;29;20035;-87
2023/12/30 06:35:51;;;;;;;2.83;1.90;;;;;;;;;;4947761;29;20023;-88
2023/12/30 06:38:17;;;;;;;3.90;1.80;;;;;;;;;;4929918;29;20046;-87
2023/12/30 06:40:43;;;;;;;3.70;2.00;;;;;;;;;;4954074;29;20029;-87
2023/12/30 06:43:09;;;;;;;3.85;2.03;;;;;;;;;;4946990;28;20040;-87
2023/12/30 06:45:34;;;;;;;2.60;1.70;;;;;;;;;;4937680;29;20034;-87
2023/12/30 06:48:00;;;;;;;2.83;1.95;;;;;;;;;;4945048;29;20046;-88
2023/12/30 06:50:26;;;;;;;3.13;2.10;;;;;;;;;;4943930;28;20026;-88
2023/12/30 06:52:57;;;;;;;6.18;2.40;;;;;;;;;;4951715;28;20073;-86
2023/12/30 06:55:23;;;;;;;3.42;2.13;;;;;;;;;;4944829;29;20050;-88
2023/12/30 06:57:48;;;;;;;2.72;1.98;;;;;;;;;;4944193;29;20478;-86
2023/12/30 07:00:14;;;;;;;3.60;1.92;;;;;;;;;;4945456;29;20043;-86
2023/12/30 07:02:41;;;;;;;2.63;1.90;;;;;;;;;;4951617;29;20024;-86
2023/12/30 07:05:08;;;;;;;4.25;2.00;;;;;;;;;;4942145;28;20118;-87
2023/12/30 07:07:34;;;;;;;3.60;2.28;;;;;;;;;;4950438;29;20042;-87
2023/12/30 07:09:59;;;;;;;3.20;2.10;;;;;;;;;;4928444;29;20035;-88
2023/12/30 07:12:25;;;;;;;3.13;1.90;;;;;;;;;;4950411;29;20043;-86
2023/12/30 07:14:50;;;;;;;3.33;1.98;;;;;;;;;;4945866;29;20110;-85
2023/12/30 07:17:16;;;;;;;3.63;1.90;;;;;;;;;;4948224;29;20510;-84
2023/12/30 07:19:42;;;;;;;3.38;2.03;;;;;;;;;;4954585;29;20058;-84
2023/12/30 07:22:08;;;;;;;3.75;2.20;;;;;;;;;;4950973;28;20091;-86
2023/12/30 07:24:33;;;;;;;4.90;2.35;;;;;;;;;;4952962;28;20043;-84
2023/12/30 07:26:58;;;;;;;3.28;1.70;;;;;;;;;;4927814;29;20054;-85
2023/12/30 07:29:24;;;;;;;3.45;1.70;;;;;;;;;;4939162;29;20078;-85
2023/12/30 07:31:50;;;;;;;2.40;1.65;;;;;;;;;;4952461;29;20049;-86
2023/12/30 07:34:17;;;;;;;3.03;1.70;;;;;;;;;;4948694;29;20038;-85
2023/12/30 07:36:43;;;;;;;3.08;1.70;;;;;;;;;;4950220;28;20050;-84
2023/12/30 07:39:09;;;;;;;3.20;1.90;;;;;;;;;;4955313;29;20079;-87
2023/12/30 07:41:34;;;;;;;2.90;1.90;;;;;;;;;;4951849;29;20047;-85
2023/12/30 07:44:00;;;;;;;3.63;1.90;;;;;;;;;;4948252;29;20023;-86
2023/12/30 07:46:26;;;;;;;4.15;1.98;;;;;;;;;;4947533;29;20039;-85
2023/12/30 07:48:52;;;;;;;3.33;2.05;;;;;;;;;;4942278;29;20031;-85
2023/12/30 07:51:17;;;;;;;3.45;1.90;;;;;;;;;;4937804;28;20504;-86
2023/12/30 07:53:43;;;;;;;3.05;1.70;;;;;;;;;;4938129;29;20038;-86
2023/12/30 07:56:08;;;;;;;2.60;1.65;;;;;;;;;;4950406;29;20031;-86
2023/12/30 07:58:34;;;;;;;3.08;1.80;;;;;;;;;;4948546;29;20122;-85
2023/12/30 08:01:00;;;;;;;5.03;1.80;;;;;;;;;;4948687;28;20035;-84
2023/12/30 08:03:25;;;;;;;3.67;2.00;;;;;;;;;;4946815;29;20039;-84
2023/12/30 08:05:51;;;;;;;3.65;1.98;;;;;;;;;;4948010;29;20118;-82
2023/12/30 08:08:16;;;;;;;3.28;1.80;;;;;;;;;;4941461;29;20043;-83
2023/12/30 08:10:42;;;;;;;4.68;2.53;;;;;;;;;;4942069;29;20753;-82
2023/12/30 08:13:07;;;;;;;3.75;2.05;;;;;;;;;;4949498;29;20043;-81
2023/12/30 08:15:33;;;;;;;5.18;2.00;;;;;;;;;;4950820;29;20081;-83
2023/12/30 08:17:59;;;;;;;3.00;1.80;;;;;;;;;;4951828;29;20032;-83
2023/12/30 08:20:27;;;;;;;3.30;1.85;;;;;;;;;;4951854;29;20032;-83
2023/12/30 08:22:54;;;;;;;4.57;2.55;;;;;;;;;;4953330;29;20521;-82
2023/12/30 08:25:20;;;;;;;5.88;2.60;;;;;;;;;;4949303;28;20552;-84
2023/12/30 08:27:45;;;;;;;3.95;2.15;;;;;;;;;;4929133;29;20059;-83
2023/12/30 08:30:11;;;;;;;5.35;2.50;;;;;;;;;;4923470;29;20400;-83
2023/12/30 08:32:36;;;;;;;4.50;2.35;;;;;;;;;;4943548;29;20035;-83
2023/12/30 08:35:07;;;;;;;7.35;2.90;;;;;;;;;;4948282;29;20068;-83
2023/12/30 08:37:34;;;;;;;3.88;2.22;;;;;;;;;;4950286;29;20043;-82
2023/12/30 08:39:59;;;;;;;5.53;2.50;;;;;;;;;;4950248;28;20118;-83
2023/12/30 08:42:25;;;;;;;5.65;2.25;;;;;;;;;;4947658;29;20055;-82
2023/12/30 08:44:50;;;;;;;5.68;2.15;;;;;;;;;;4940547;29;20092;-84
2023/12/30 08:47:16;;;;;;;3.67;1.98;;;;;;;;;;4950182;29;20148;-84
2023/12/30 08:49:42;;;;;;;4.35;2.30;;;;;;;;;;4941093;28;20040;-84
2023/12/30 08:52:08;;;;;;;5.15;2.10;;;;;;;;;;4944983;29;20040;-81
2023/12/30 08:54:34;;;;;;;3.00;1.83;;;;;;;;;;4944032;29;20280;-83
2023/12/30 08:56:59;;;;;;;3.22;2.10;;;;;;;;;;4946595;29;20046;-82
2023/12/30 08:59:25;;;;;;;7.47;2.35;;;;;;;;;;4943835;29;20031;-84
2023/12/30 09:01:51;;;;;;;5.53;2.15;;;;;;;;;;4951229;28;20033;-86
2023/12/30 09:04:18;;;;;;;4.90;1.83;;;;;;;;;;4952951;29;20055;-82
2023/12/30 09:06:43;;;;;;;4.55;1.90;;;;;;;;;;4950359;28;20027;-84
2023/12/30 09:09:11;;;;;;;4.38;2.17;;;;;;;;;;4951750;29;20064;-81
2023/12/30 09:11:38;;;;;;;6.50;2.20;;;;;;;;;;4945302;29;20039;-82
2023/12/30 09:14:05;;;;;;;4.72;1.90;;;;;;;;;;4946092;29;20042;-85
2023/12/30 09:16:30;;;;;;;4.55;1.80;;;;;;;;;;4956740;28;20336;-85
2023/12/30 09:18:56;;;;;;;3.13;1.60;;;;;;;;;;4957590;28;20062;-84
2023/12/30 09:21:21;;;;;;;3.10;1.70;;;;;;;;;;4955587;29;20026;-83
2023/12/30 09:23:47;;;;;;;3.20;1.88;;;;;;;;;;4961383;29;20074;-82
2023/12/30 09:26:14;;;;;;;3.13;1.42;;;;;;;;;;4954448;29;20067;-84
2023/12/30 09:28:39;;;;;;;3.88;1.63;;;;;;;;;;4957013;29;20062;-85
2023/12/30 09:31:05;;;;;;;4.47;1.90;;;;;;;;;;4953363;29;20043;-82
2023/12/30 09:33:30;;;;;;;3.10;1.63;;;;;;;;;;4952003;29;20035;-86
2023/12/30 09:35:56;;;;;;;3.60;1.55;;;;;;;;;;4955360;29;20044;-83
2023/12/30 09:38:25;;;;;;;2.58;1.50;;;;;;;;;;4956931;28;20070;-85
2023/12/30 09:40:52;;;;;;;3.75;2.03;;;;;;;;;;4953988;28;20042;-85
2023/12/30 09:43:27;;;;;;;7.68;1.70;;;;;;;;;;4955061;29;20030;-84
2023/12/30 09:45:54;;;;;;;5.18;2.30;;;;;;;;;;4956595;29;20037;-81
2023/12/30 09:48:24;;;;;;;3.22;1.60;;;;;;;;;;4950389;29;20091;-83
2023/12/30 09:50:51;;;;;;;2.67;1.60;;;;;;;;;;4959519;29;20490;-84
2023/12/30 09:53:17;;;;;;;3.25;1.42;;;;;;;;;;4954638;29;20039;-82
2023/12/30 09:55:46;;;;;;;3.47;1.90;;;;;;;;;;4951149;29;20024;-83
2023/12/30 09:58:16;;;;;;;3.53;1.70;;;;;;;;;;4951560;29;20413;-83
2023/12/30 10:00:42;;;;;;;3.53;1.70;;;;;;;;;;4954956;29;20039;-84
2023/12/30 10:03:09;;;;;;;4.90;1.60;;;;;;;;;;4951120;29;20028;-83
2023/12/30 10:05:34;;;;;;;3.88;1.80;;;;;;;;;;4948714;29;20023;-85
2023/12/30 10:08:03;;;;;;;3.72;1.50;;;;;;;;;;4956363;29;20035;-85
2023/12/30 10:10:46;;;;;;;1.80;1.30;;;;;;;;;;4941861;28;20047;-82
2023/12/30 10:13:13;;;;;;;2.40;1.40;;;;;;;;;;4950151;28;20044;-85
2023/12/30 10:15:40;;;;;;;3.40;1.65;;;;;;;;;;4954286;29;20391;-85
2023/12/30 10:18:07;;;;;;;3.17;1.50;;;;;;;;;;4949495;29;20036;-83
2023/12/30 10:20:44;;;;;;;2.65;1.52;;;;;;;;;;4958264;29;20043;-83
2023/12/30 10:23:10;;;;;;;2.08;1.40;;;;;;;;;;4953182;28;20024;-84
2023/12/30 10:25:36;;;;;;;3.90;1.63;;;;;;;;;;4952671;28;20056;-81
2023/12/30 10:28:02;;;;;;;2.72;1.50;;;;;;;;;;4949046;29;20032;-84
2023/12/30 10:30:30;;;;;;;3.03;1.70;;;;;;;;;;4946060;29;20136;-85
2023/12/30 10:33:10;;;;;;;3.78;1.73;;;;;;;;;;4949762;29;20035;-82
2023/12/30 10:35:38;;;;;;;3.65;1.98;;;;;;;;;;4945180;29;20036;-82
2023/12/30 10:38:04;;;;;;;4.38;1.83;;;;;;;;;;4949675;29;20039;-85
2023/12/30 10:40:30;;;;;;;3.75;1.95;;;;;;;;;;4953631;28;20035;-85
2023/12/30 10:42:57;;;;;;;4.45;1.80;;;;;;;;;;4952248;29;20050;-85
2023/12/30 10:45:23;;;;;;;4.03;2.53;;;;;;;;;;4953076;28;20035;-84
2023/12/30 10:47:50;;;;;;;4.20;2.45;;;;;;;;;;4950755;29;20038;-84
2023/12/30 10:50:16;;;;;;;3.65;2.13;;;;;;;;;;4949081;29;20040;-83
2023/12/30 10:52:51;;;;;;;4.25;2.00;;;;;;;;;;4956514;29;20428;-82
2023/12/30 10:55:17;;;;;;;4.82;2.00;;;;;;;;;;4952102;29;20526;-85
2023/12/30 10:58:00;;;;;;;2.72;1.60;;;;;;;;;;4947999;29;20044;-85
2023/12/30 11:00:27;;;;;;;2.97;1.67;;;;;;;;;;4950697;29;20043;-85
2023/12/30 11:02:53;;;;;;;2.65;1.52;;;;;;;;;;4952609;28;20118;-86
2023/12/30 11:05:34;;;;;;;1.90;1.33;;;;;;;;;;4954838;29;20094;-83
2023/12/30 11:08:00;;;;;;;2.13;1.42;;;;;;;;;;4955710;29;20027;-84
2023/12/30 11:10:26;;;;;;;1.80;1.30;;;;;;;;;;4948051;28;20124;-86
2023/12/30 11:12:53;;;;;;;5.35;1.50;;;;;;;;;;4941886;29;20036;-83
2023/12/30 11:15:26;;;;;;;2.47;1.70;;;;;;;;;;4947390;29;20038;-85
2023/12/30 11:17:52;;;;;;;3.72;1.80;;;;;;;;;;4934947;29;20401;-87
2023/12/30 11:20:24;;;;;;;4.95;2.00;;;;;;;;;;4953720;29;20043;-84
2023/12/30 11:22:52;;;;;;;2.23;1.37;;;;;;;;;;4953856;28;20482;-83
2023/12/30 11:25:18;;;;;;;3.00;1.50;;;;;;;;;;4953220;28;20727;-85
2023/12/30 11:27:48;;;;;;;4.25;2.60;;;;;;;;;;4952305;29;20514;-84
2023/12/30 11:30:24;;;;;;;5.35;2.20;;;;;;;;;;4952741;29;20118;-85
2023/12/30 11:32:52;;;;;;;3.40;1.70;;;;;;;;;;4955073;28;20035;-87
2023/12/30 11:35:18;;;;;;;2.42;1.60;;;;;;;;;;4952161;29;20060;-83
2023/12/30 11:37:46;;;;;;;2.58;1.60;;;;;;;;;;4945707;29;20047;-82
2023/12/30 11:40:18;;;;;;;3.85;2.13;;;;;;;;;;4946598;29;20086;-83
2023/12/30 11:42:44;;;;;;;3.13;1.55;;;;;;;;;;4948535;29;20084;-83
2023/12/30 11:45:09;;;;;;;2.75;1.50;;;;;;;;;;4945463;29;20063;-81
2023/12/30 11:47:36;;;;;;;3.30;1.67;;;;;;;;;;4947944;29;20031;-83
2023/12/30 11:50:07;;;;;;;2.40;1.40;;;;;;;;;;4942058;29;20044;-85
2023/12/30 11:52:36;;;;;;;1.80;1.20;;;;;;;;;;4944086;28;20445;-83
2023/12/30 11:55:02;;;;;;;3.42;1.33;;;;;;;;;;4949625;29;20055;-82
2023/12/30 11:57:27;;;;;;;5.05;1.58;;;;;;;;;;4947264;29;20422;-82
2023/12/30 11:59:53;;;;;;;4.93;1.50;;;;;;;;;;4951873;29;20042;-84
2023/12/30 12:02:21;;;;;;;2.28;1.40;;;;;;;;;;4946476;29;20031;-84
2023/12/30 12:04:46;;;;;;;2.00;1.40;;;;;;;;;;4956162;29;20031;-85
2023/12/30 12:07:12;;;;;;;2.67;1.50;;;;;;;;;;4952072;29;20140;-84
2023/12/30 12:09:40;;;;;;;2.25;1.42;;;;;;;;;;4948550;29;20067;-85
2023/12/30 12:12:06;;;;;;;2.55;1.70;;;;;;;;;;4945262;29;20032;-84
2023/12/30 12:14:32;;;;;;;4.07;1.85;;;;;;;;;;4942467;28;20042;-83
2023/12/30 12:16:57;;;;;;;3.60;1.80;;;;;;;;;;4946272;29;20039;-83
2023/12/30 12:19:25;;;;;;;2.42;1.55;;;;;;;;;;4949687;29;20059;-85
2023/12/30 12:21:50;;;;;;;2.05;1.33;;;;;;;;;;4957568;29;20035;-86
2023/12/30 12:24:16;;;;;;;2.05;1.40;;;;;;;;;;4955966;29;20051;-84
2023/12/30 12:26:43;;;;;;;3.10;1.48;;;;;;;;;;4956359;29;20067;-84
2023/12/30 12:29:08;;;;;;;2.92;1.25;;;;;;;;;;4954732;28;20028;-86
2023/12/30 12:31:34;;;;;;;2.28;1.40;;;;;;;;;;4951768;29;20039;-86
2023/12/30 12:34:22;;;;;;;1.83;1.48;;;;;;;;;;4945958;29;20042;-86
2023/12/30 12:36:48;;;;;;;2.78;1.20;;;;;;;;;;4951388;28;20579;-85
2023/12/30 12:39:13;;;;;;;1.85;1.20;;;;;;;;;;4949566;28;20048;-84
2023/12/30 12:41:39;;;;;;;2.70;1.23;;;;;;;;;;4959100;28;20043;-84
2023/12/30 12:44:04;;;;;;;2.53;1.50;;;;;;;;;;4960010;28;20027;-84
2023/12/30 12:46:30;;;;;;;2.28;1.30;;;;;;;;;;4963104;28;20066;-86
2023/12/30 12:48:57;;;;;;;2.20;1.30;;;;;;;;;;4960068;29;20058;-86
2023/12/30 12:51:23;;;;;;;2.65;1.20;;;;;;;;;;4964674;28;20111;-87
2023/12/30 12:53:49;;;;;;;4.93;2.03;;;;;;;;;;4957896;29;20031;-86
2023/12/30 12:56:14;;;;;;;9.00;2.72;;;;;;;;;;4963960;29;20028;-85
2023/12/30 12:58:40;;;;;;;2.88;1.60;;;;;;;;;;4958524;29;20516;-85
2023/12/30 13:01:07;;;;;;;2.22;1.10;;;;;;;;;;4952618;29;20031;-86
2023/12/30 13:03:33;;;;;;;2.22;1.30;;;;;;;;;;4949636;28;20516;-86
2023/12/30 13:06:10;;;;;;;1.70;1.20;;;;;;;;;;4953131;28;20059;-84
2023/12/30 13:08:36;;;;;;;2.05;1.17;;;;;;;;;;4953376;29;20043;-86
2023/12/30 13:11:02;;;;;;;2.63;1.20;;;;;;;;;;4942575;29;20034;-83
2023/12/30 13:13:29;;;;;;;2.63;1.30;;;;;;;;;;4955942;29;20044;-84
2023/12/30 13:15:58;;;;;;;1.67;1.17;;;;;;;;;;4943477;28;20513;-83
2023/12/30 13:18:24;;;;;;;2.28;1.33;;;;;;;;;;4954371;29;20082;-83
2023/12/30 13:20:49;;;;;;;3.90;1.30;;;;;;;;;;4951245;28;20445;-84
2023/12/30 13:23:15;;;;;;;1.90;1.10;;;;;;;;;;4949518;29;20027;-84
2023/12/30 13:25:41;;;;;;;1.50;0.98;;;;;;;;;;4950352;28;20062;-85
2023/12/30 13:28:07;;;;;;;1.85;1.20;;;;;;;;;;4951470;29;20027;-84
2023/12/30 13:30:34;;;;;;;4.00;1.40;;;;;;;;;;4975644;23;20327;-82
2023/12/30 13:33:08;;;;;;;2.25;1.30;;;;;;;;;;4927677;29;20123;-86
2023/12/30 13:35:36;;;;;;;2.03;1.10;;;;;;;;;;4936571;29;20040;-84
2023/12/30 13:38:11;;;;;;;1.30;0.82;;;;;;;;;;4919503;29;20123;-84
2023/12/30 13:40:38;;;;;;;3.05;1.25;;;;;;;;;;4922928;29;20051;-85
2023/12/30 13:43:07;;;;;;;2.72;1.30;;;;;;;;;;4922399;29;20023;-85
2023/12/30 13:45:43;;;;;;;2.88;1.15;;;;;;;;;;4926368;29;20099;-82
2023/12/30 13:48:24;;;;;;;1.50;1.20;;;;;;;;;;4923399;29;20040;-84
2023/12/30 13:50:53;;;;;;;2.55;1.33;;;;;;;;;;4928800;29;20068;-83
2023/12/30 13:53:21;;;;;;;1.90;1.30;;;;;;;;;;4925839;29;20040;-83
2023/12/30 13:55:46;;;;;;;2.70;1.60;;;;;;;;;;4919568;29;20035;-83
2023/12/30 13:58:12;;;;;;;5.03;1.27;;;;;;;;;;4919945;29;20627;-85
2023/12/30 14:00:42;;;;;;;3.42;1.30;;;;;;;;;;4942528;29;20040;-84
2023/12/30 14:03:08;;;;;;;3.42;1.20;;;;;;;;;;4923083;29;20036;-84
2023/12/30 14:05:40;;;;;;;3.67;1.40;;;;;;;;;;4927793;29;20115;-84
2023/12/30 14:08:30;;;;;;;12.75;6.25;;;;;;;;;;4945792;28;20083;-85
2023/12/30 14:10:55;;;;;;;20.40;11.40;;;;;;;;;;4912827;29;20502;-83
2023/12/30 14:13:23;;;;;;;24.90;14.63;;;;;;;;;;4932920;29;20032;-83
2023/12/30 14:15:49;;;;;;;13.50;7.40;;;;;;;;;;4928059;29;20058;-84
2023/12/30 14:18:18;;;;;;;7.05;3.90;;;;;;;;;;4921994;29;20051;-84
2023/12/30 14:20:45;;;;;;;9.00;4.57;;;;;;;;;;4923316;29;20059;-86
2023/12/30 14:23:11;;;;;;;8.38;4.35;;;;;;;;;;4926689;29;20030;-83
2023/12/30 14:25:38;;;;;;;5.38;2.13;;;;;;;;;;4926726;29;20126;-84
2023/12/30 14:28:04;;;;;;;3.53;1.65;;;;;;;;;;4928105;29;20028;-84
2023/12/30 14:30:32;;;;;;;3.75;2.20;;;;;;;;;;4928897;29;20083;-82
2023/12/30 14:32:58;;;;;;;2.65;1.77;;;;;;;;;;4926161;29;20035;-84
2023/12/30 14:35:23;;;;;;;2.80;1.52;;;;;;;;;;4923081;29;20032;-83
2023/12/30 14:37:49;;;;;;;2.90;1.75;;;;;;;;;;4920131;29;20032;-85
2023/12/30 14:40:15;;;;;;;4.05;2.60;;;;;;;;;;4918634;29;20053;-81